Aérodrome :
LOGIN :

S'inscrire | Disclaimer

   EN    FR    IT 

 










Légende :    VFR   VFR Marginal   IFR   IFR Intensif   IFR Très Intensif
Visi : 
Plafond : 
>= 8 km
>= 3000ft
5 à 8 km
1000 à 3000 ft
1500m à 5 km
500 à 1000 ft
800 à 1500m
200 à 500 ft
< 800m
< 200 ft
Symboles :   Orages  Brouillard  Fortes neiges  Fortes précipitations  Vent > 20 kt
SIGMETs :   Divers  Orages  Givrage  Turbulence  Onde Orograph.  Cendres Volcan.






- Altitude de l'aérodrome : 3100 ft
- Code IATA : NAV


LTAZ - Kapadokya

DERNIER METAR :
  • 192050Z 20004KT CAVOK M09/M10 Q1018 RMK RWY29 21003KT

METARs EXPIRÉS :
  • 192020Z 21006KT CAVOK M08/M10 Q1018 RMK RWY29 24002KT
  • 191950Z 22003KT CAVOK M08/M09 Q1018 RMK RWY29 19004KT
  • 191920Z 23002KT CAVOK M07/M09 Q1018 RMK RWY29 19003KT
  • 191850Z 20003KT 160V220 CAVOK M07/M10 Q1018 RMK RWY29 18003KT
  • 191820Z VRB02KT CAVOK M07/M10 Q1018 RMK RWY29 15004KT

TAF TAF LTAZ
Valide du 19 à 18h jusqu'au 20 à 18h UTC


191640Z 1918/2018 VRB02KT CAVOK
TEMPO 2009/2013 30012KT FEW040



MET'MAP, la Météo Aéronautique d'un coup d'oeil ! - Copyright ORBIFLY Décembre 2007 - Disclaimer

ORBIFLY MET'MAP TEAM :

Programmation & Développement : Alexandra Zaïnal
Sur une idée originale de : Baudouin d'Aumeries
Assistance à la programmation : Marc-Olivier Méhu
Soutien technique & logistique : Manuel Goepfert

Contact : metmap@orbifly.com




SOURCES & CREDITS :

   NOAA